sensor_id;sensor_type;location;lat;lon;timestamp;P1;durP1;ratioP1;P2;durP2;ratioP2
49177;SDS011;35016;55.674;37.468;2024-03-02T00:00:15;30.67;;;18.45;;
49177;SDS011;35016;55.674;37.468;2024-03-02T00:02:43;24.75;;;16.98;;
49177;SDS011;35016;55.674;37.468;2024-03-02T00:05:12;23.63;;;17.15;;
49177;SDS011;35016;55.674;37.468;2024-03-02T00:07:44;26.42;;;18.38;;
49177;SDS011;35016;55.674;37.468;2024-03-02T00:10:14;24.40;;;16.00;;
49177;SDS011;35016;55.674;37.468;2024-03-02T00:12:46;22.25;;;16.02;;
49177;SDS011;35016;55.674;37.468;2024-03-02T00:15:29;21.80;;;16.73;;
49177;SDS011;35016;55.674;37.468;2024-03-02T00:18:12;22.20;;;14.85;;
49177;SDS011;35016;55.674;37.468;2024-03-02T00:20:54;22.85;;;16.75;;
49177;SDS011;35016;55.674;37.468;2024-03-02T00:23:27;21.30;;;15.07;;
49177;SDS011;35016;55.674;37.468;2024-03-02T00:25:56;20.33;;;16.27;;
49177;SDS011;35016;55.674;37.468;2024-03-02T00:28:27;25.98;;;16.65;;
49177;SDS011;35016;55.674;37.468;2024-03-02T00:31:06;25.80;;;17.30;;
49177;SDS011;35016;55.674;37.468;2024-03-02T00:33:35;23.98;;;16.58;;
49177;SDS011;35016;55.674;37.468;2024-03-02T00:36:04;22.35;;;14.75;;
49177;SDS011;35016;55.674;37.468;2024-03-02T00:38:34;24.02;;;18.27;;
49177;SDS011;35016;55.674;37.468;2024-03-02T00:41:06;28.30;;;17.60;;
49177;SDS011;35016;55.674;37.468;2024-03-02T00:46:12;27.60;;;16.90;;
49177;SDS011;35016;55.674;37.468;2024-03-02T00:48:45;25.42;;;17.98;;
49177;SDS011;35016;55.674;37.468;2024-03-02T00:51:26;22.30;;;15.32;;
49177;SDS011;35016;55.674;37.468;2024-03-02T00:53:57;22.90;;;16.25;;
49177;SDS011;35016;55.674;37.468;2024-03-02T00:56:31;20.33;;;16.25;;
49177;SDS011;35016;55.674;37.468;2024-03-02T00:58:59;24.42;;;16.77;;
49177;SDS011;35016;55.674;37.468;2024-03-02T01:01:26;22.52;;;16.45;;
49177;SDS011;35016;55.674;37.468;2024-03-02T01:03:54;23.77;;;16.65;;
49177;SDS011;35016;55.674;37.468;2024-03-02T01:06:22;23.60;;;17.33;;
49177;SDS011;35016;55.674;37.468;2024-03-02T01:08:49;23.65;;;17.02;;
49177;SDS011;35016;55.674;37.468;2024-03-02T01:11:19;21.17;;;15.45;;
49177;SDS011;35016;55.674;37.468;2024-03-02T01:13:50;24.00;;;16.85;;
49177;SDS011;35016;55.674;37.468;2024-03-02T01:16:19;22.13;;;16.63;;
49177;SDS011;35016;55.674;37.468;2024-03-02T01:18:47;23.15;;;17.92;;
49177;SDS011;35016;55.674;37.468;2024-03-02T01:21:14;22.10;;;16.63;;
49177;SDS011;35016;55.674;37.468;2024-03-02T01:23:42;22.27;;;16.52;;
49177;SDS011;35016;55.674;37.468;2024-03-02T01:26:10;22.15;;;14.60;;
49177;SDS011;35016;55.674;37.468;2024-03-02T01:28:37;23.05;;;18.75;;
49177;SDS011;35016;55.674;37.468;2024-03-02T01:31:04;26.67;;;17.50;;
49177;SDS011;35016;55.674;37.468;2024-03-02T01:33:31;25.38;;;17.48;;
49177;SDS011;35016;55.674;37.468;2024-03-02T01:35:58;23.88;;;18.02;;
49177;SDS011;35016;55.674;37.468;2024-03-02T01:38:26;26.25;;;17.23;;
49177;SDS011;35016;55.674;37.468;2024-03-02T01:40:55;21.75;;;16.75;;
49177;SDS011;35016;55.674;37.468;2024-03-02T01:43:23;24.10;;;18.77;;
49177;SDS011;35016;55.674;37.468;2024-03-02T01:45:50;22.95;;;17.70;;
49177;SDS011;35016;55.674;37.468;2024-03-02T01:48:18;24.55;;;17.45;;
49177;SDS011;35016;55.674;37.468;2024-03-02T01:50:46;20.85;;;15.48;;
49177;SDS011;35016;55.674;37.468;2024-03-02T01:53:13;20.55;;;17.48;;
49177;SDS011;35016;55.674;37.468;2024-03-02T01:55:40;22.92;;;18.02;;
49177;SDS011;35016;55.674;37.468;2024-03-02T01:58:08;23.60;;;17.30;;
49177;SDS011;35016;55.674;37.468;2024-03-02T02:00:35;23.52;;;15.45;;
49177;SDS011;35016;55.674;37.468;2024-03-02T02:03:02;27.80;;;19.42;;
49177;SDS011;35016;55.674;37.468;2024-03-02T02:05:29;30.05;;;18.98;;
49177;SDS011;35016;55.674;37.468;2024-03-02T02:07:58;25.98;;;20.35;;
49177;SDS011;35016;55.674;37.468;2024-03-02T02:10:25;22.20;;;18.23;;
49177;SDS011;35016;55.674;37.468;2024-03-02T02:12:53;26.70;;;17.80;;
49177;SDS011;35016;55.674;37.468;2024-03-02T02:15:29;30.85;;;18.33;;
49177;SDS011;35016;55.674;37.468;2024-03-02T02:17:58;26.17;;;18.13;;
49177;SDS011;35016;55.674;37.468;2024-03-02T02:20:46;25.13;;;17.98;;
49177;SDS011;35016;55.674;37.468;2024-03-02T02:23:13;26.70;;;18.15;;
49177;SDS011;35016;55.674;37.468;2024-03-02T02:25:40;23.42;;;17.42;;
49177;SDS011;35016;55.674;37.468;2024-03-02T02:28:07;24.58;;;17.15;;
49177;SDS011;35016;55.674;37.468;2024-03-02T02:30:34;26.40;;;20.77;;
49177;SDS011;35016;55.674;37.468;2024-03-02T02:33:02;30.98;;;20.08;;
49177;SDS011;35016;55.674;37.468;2024-03-02T02:35:29;27.55;;;19.83;;
49177;SDS011;35016;55.674;37.468;2024-03-02T02:37:57;27.08;;;17.80;;
49177;SDS011;35016;55.674;37.468;2024-03-02T02:40:25;27.80;;;17.77;;
49177;SDS011;35016;55.674;37.468;2024-03-02T02:42:53;23.42;;;19.42;;
49177;SDS011;35016;55.674;37.468;2024-03-02T02:45:20;26.13;;;18.65;;
49177;SDS011;35016;55.674;37.468;2024-03-02T02:47:47;24.42;;;18.90;;
49177;SDS011;35016;55.674;37.468;2024-03-02T02:50:15;25.17;;;19.23;;
49177;SDS011;35016;55.674;37.468;2024-03-02T02:52:42;29.70;;;18.77;;
49177;SDS011;35016;55.674;37.468;2024-03-02T02:55:10;26.50;;;18.95;;
49177;SDS011;35016;55.674;37.468;2024-03-02T02:57:40;28.58;;;18.88;;
49177;SDS011;35016;55.674;37.468;2024-03-02T03:00:13;25.20;;;18.83;;
49177;SDS011;35016;55.674;37.468;2024-03-02T03:02:44;27.30;;;16.77;;
49177;SDS011;35016;55.674;37.468;2024-03-02T03:05:16;29.92;;;20.55;;
49177;SDS011;35016;55.674;37.468;2024-03-02T03:07:43;27.98;;;17.63;;
49177;SDS011;35016;55.674;37.468;2024-03-02T03:10:12;26.75;;;18.17;;
49177;SDS011;35016;55.674;37.468;2024-03-02T03:12:41;32.20;;;18.40;;
49177;SDS011;35016;55.674;37.468;2024-03-02T03:15:10;27.25;;;20.45;;
49177;SDS011;35016;55.674;37.468;2024-03-02T03:17:41;24.63;;;17.70;;
49177;SDS011;35016;55.674;37.468;2024-03-02T03:20:08;26.20;;;18.05;;
49177;SDS011;35016;55.674;37.468;2024-03-02T03:22:42;24.67;;;18.95;;
49177;SDS011;35016;55.674;37.468;2024-03-02T03:25:09;29.17;;;18.17;;
49177;SDS011;35016;55.674;37.468;2024-03-02T03:27:37;28.85;;;18.83;;
49177;SDS011;35016;55.674;37.468;2024-03-02T03:30:05;24.90;;;18.73;;
49177;SDS011;35016;55.674;37.468;2024-03-02T03:32:34;24.73;;;17.73;;
49177;SDS011;35016;55.674;37.468;2024-03-02T03:35:02;28.05;;;19.15;;
49177;SDS011;35016;55.674;37.468;2024-03-02T03:37:31;25.17;;;19.33;;
49177;SDS011;35016;55.674;37.468;2024-03-02T03:40:02;25.48;;;19.98;;
49177;SDS011;35016;55.674;37.468;2024-03-02T03:42:33;29.33;;;20.42;;
49177;SDS011;35016;55.674;37.468;2024-03-02T03:45:01;26.58;;;17.98;;
49177;SDS011;35016;55.674;37.468;2024-03-02T03:47:33;26.63;;;18.25;;
49177;SDS011;35016;55.674;37.468;2024-03-02T03:50:00;25.38;;;18.85;;
49177;SDS011;35016;55.674;37.468;2024-03-02T03:52:29;24.02;;;18.65;;
49177;SDS011;35016;55.674;37.468;2024-03-02T03:54:56;27.92;;;18.00;;
49177;SDS011;35016;55.674;37.468;2024-03-02T03:57:23;30.33;;;20.17;;
49177;SDS011;35016;55.674;37.468;2024-03-02T03:59:51;24.05;;;18.00;;
49177;SDS011;35016;55.674;37.468;2024-03-02T04:02:18;30.05;;;18.80;;
49177;SDS011;35016;55.674;37.468;2024-03-02T04:04:45;30.75;;;20.65;;
49177;SDS011;35016;55.674;37.468;2024-03-02T04:07:13;28.83;;;19.88;;
49177;SDS011;35016;55.674;37.468;2024-03-02T04:09:40;26.83;;;18.55;;
49177;SDS011;35016;55.674;37.468;2024-03-02T04:12:07;25.80;;;18.70;;
49177;SDS011;35016;55.674;37.468;2024-03-02T04:14:34;29.20;;;19.27;;
49177;SDS011;35016;55.674;37.468;2024-03-02T04:17:01;26.58;;;19.17;;
49177;SDS011;35016;55.674;37.468;2024-03-02T04:19:29;25.55;;;19.17;;
49177;SDS011;35016;55.674;37.468;2024-03-02T04:21:56;26.00;;;19.90;;
49177;SDS011;35016;55.674;37.468;2024-03-02T04:24:27;26.73;;;18.65;;
49177;SDS011;35016;55.674;37.468;2024-03-02T04:26:54;29.65;;;19.90;;
49177;SDS011;35016;55.674;37.468;2024-03-02T04:29:21;28.55;;;18.35;;
49177;SDS011;35016;55.674;37.468;2024-03-02T04:31:48;29.70;;;19.50;;
49177;SDS011;35016;55.674;37.468;2024-03-02T04:34:16;23.98;;;20.08;;
49177;SDS011;35016;55.674;37.468;2024-03-02T04:36:43;31.20;;;19.05;;
49177;SDS011;35016;55.674;37.468;2024-03-02T04:39:10;25.85;;;18.50;;
49177;SDS011;35016;55.674;37.468;2024-03-02T04:41:37;26.73;;;19.38;;
49177;SDS011;35016;55.674;37.468;2024-03-02T04:44:04;27.08;;;19.75;;
49177;SDS011;35016;55.674;37.468;2024-03-02T04:46:33;31.35;;;23.02;;
49177;SDS011;35016;55.674;37.468;2024-03-02T04:49:01;24.80;;;17.48;;
49177;SDS011;35016;55.674;37.468;2024-03-02T04:51:28;29.55;;;19.58;;
49177;SDS011;35016;55.674;37.468;2024-03-02T04:53:55;26.85;;;18.52;;
49177;SDS011;35016;55.674;37.468;2024-03-02T04:56:22;24.13;;;18.42;;
49177;SDS011;35016;55.674;37.468;2024-03-02T04:58:53;26.33;;;21.00;;
49177;SDS011;35016;55.674;37.468;2024-03-02T05:01:20;28.23;;;18.92;;
49177;SDS011;35016;55.674;37.468;2024-03-02T05:03:47;25.13;;;19.48;;
49177;SDS011;35016;55.674;37.468;2024-03-02T05:06:14;26.52;;;20.40;;
49177;SDS011;35016;55.674;37.468;2024-03-02T05:08:41;29.05;;;18.95;;
49177;SDS011;35016;55.674;37.468;2024-03-02T05:11:09;29.70;;;20.83;;
49177;SDS011;35016;55.674;37.468;2024-03-02T05:13:54;23.85;;;19.70;;
49177;SDS011;35016;55.674;37.468;2024-03-02T05:16:21;28.10;;;20.58;;
49177;SDS011;35016;55.674;37.468;2024-03-02T05:18:49;29.15;;;20.00;;
49177;SDS011;35016;55.674;37.468;2024-03-02T05:21:16;24.58;;;19.27;;
49177;SDS011;35016;55.674;37.468;2024-03-02T05:23:44;25.50;;;19.52;;
49177;SDS011;35016;55.674;37.468;2024-03-02T05:26:11;26.65;;;19.17;;
49177;SDS011;35016;55.674;37.468;2024-03-02T05:28:41;27.92;;;20.45;;
49177;SDS011;35016;55.674;37.468;2024-03-02T05:31:11;26.23;;;18.75;;
49177;SDS011;35016;55.674;37.468;2024-03-02T05:33:38;30.95;;;21.17;;
49177;SDS011;35016;55.674;37.468;2024-03-02T05:36:05;26.63;;;20.75;;
49177;SDS011;35016;55.674;37.468;2024-03-02T05:38:35;28.52;;;19.02;;
49177;SDS011;35016;55.674;37.468;2024-03-02T05:41:03;30.67;;;21.77;;
49177;SDS011;35016;55.674;37.468;2024-03-02T05:43:30;27.70;;;18.75;;
49177;SDS011;35016;55.674;37.468;2024-03-02T05:45:59;24.73;;;20.55;;
49177;SDS011;35016;55.674;37.468;2024-03-02T05:48:26;26.15;;;20.15;;
49177;SDS011;35016;55.674;37.468;2024-03-02T05:50:54;29.17;;;21.30;;
49177;SDS011;35016;55.674;37.468;2024-03-02T05:53:21;28.27;;;20.98;;
49177;SDS011;35016;55.674;37.468;2024-03-02T05:55:48;33.60;;;21.73;;
49177;SDS011;35016;55.674;37.468;2024-03-02T05:58:20;30.67;;;19.38;;
49177;SDS011;35016;55.674;37.468;2024-03-02T06:01:07;28.95;;;22.27;;
49177;SDS011;35016;55.674;37.468;2024-03-02T06:03:34;33.20;;;22.15;;
49177;SDS011;35016;55.674;37.468;2024-03-02T06:06:02;31.15;;;21.63;;
49177;SDS011;35016;55.674;37.468;2024-03-02T06:08:29;28.55;;;21.73;;
49177;SDS011;35016;55.674;37.468;2024-03-02T06:10:59;29.67;;;22.02;;
49177;SDS011;35016;55.674;37.468;2024-03-02T06:13:26;33.58;;;20.98;;
49177;SDS011;35016;55.674;37.468;2024-03-02T06:15:53;34.72;;;23.75;;
49177;SDS011;35016;55.674;37.468;2024-03-02T06:18:23;28.13;;;21.13;;
49177;SDS011;35016;55.674;37.468;2024-03-02T06:20:50;32.25;;;22.83;;
49177;SDS011;35016;55.674;37.468;2024-03-02T06:23:17;31.10;;;23.65;;
49177;SDS011;35016;55.674;37.468;2024-03-02T06:25:44;30.58;;;22.42;;
49177;SDS011;35016;55.674;37.468;2024-03-02T06:28:11;29.13;;;21.52;;
49177;SDS011;35016;55.674;37.468;2024-03-02T06:30:42;35.05;;;21.92;;
49177;SDS011;35016;55.674;37.468;2024-03-02T06:33:10;32.08;;;21.30;;
49177;SDS011;35016;55.674;37.468;2024-03-02T06:35:37;32.95;;;23.35;;
49177;SDS011;35016;55.674;37.468;2024-03-02T06:38:05;28.25;;;22.52;;
49177;SDS011;35016;55.674;37.468;2024-03-02T06:40:32;32.72;;;21.98;;
49177;SDS011;35016;55.674;37.468;2024-03-02T06:43:00;33.20;;;22.75;;
49177;SDS011;35016;55.674;37.468;2024-03-02T06:45:28;27.80;;;21.38;;
49177;SDS011;35016;55.674;37.468;2024-03-02T06:47:57;29.90;;;21.85;;
49177;SDS011;35016;55.674;37.468;2024-03-02T06:50:24;31.80;;;24.25;;
49177;SDS011;35016;55.674;37.468;2024-03-02T06:52:52;31.85;;;22.83;;
49177;SDS011;35016;55.674;37.468;2024-03-02T06:55:19;31.20;;;23.98;;
49177;SDS011;35016;55.674;37.468;2024-03-02T06:57:46;34.00;;;22.50;;
49177;SDS011;35016;55.674;37.468;2024-03-02T07:00:13;29.45;;;24.23;;
49177;SDS011;35016;55.674;37.468;2024-03-02T07:02:40;29.02;;;22.80;;
49177;SDS011;35016;55.674;37.468;2024-03-02T07:05:08;34.65;;;25.00;;
49177;SDS011;35016;55.674;37.468;2024-03-02T07:07:36;30.40;;;23.75;;
49177;SDS011;35016;55.674;37.468;2024-03-02T07:10:04;33.42;;;25.27;;
49177;SDS011;35016;55.674;37.468;2024-03-02T07:12:32;33.55;;;25.20;;
49177;SDS011;35016;55.674;37.468;2024-03-02T07:14:59;33.40;;;27.25;;
49177;SDS011;35016;55.674;37.468;2024-03-02T07:17:32;28.50;;;25.25;;
49177;SDS011;35016;55.674;37.468;2024-03-02T07:19:59;34.08;;;25.73;;
49177;SDS011;35016;55.674;37.468;2024-03-02T07:22:26;30.17;;;25.13;;
49177;SDS011;35016;55.674;37.468;2024-03-02T07:24:53;33.63;;;25.98;;
49177;SDS011;35016;55.674;37.468;2024-03-02T07:27:21;31.15;;;25.45;;
49177;SDS011;35016;55.674;37.468;2024-03-02T07:29:48;32.55;;;24.35;;
49177;SDS011;35016;55.674;37.468;2024-03-02T07:32:15;34.30;;;27.35;;
49177;SDS011;35016;55.674;37.468;2024-03-02T07:34:43;31.50;;;24.45;;
49177;SDS011;35016;55.674;37.468;2024-03-02T07:37:09;33.00;;;26.33;;
49177;SDS011;35016;55.674;37.468;2024-03-02T07:39:36;32.30;;;27.10;;
49177;SDS011;35016;55.674;37.468;2024-03-02T07:42:04;35.95;;;25.27;;
49177;SDS011;35016;55.674;37.468;2024-03-02T07:44:33;30.67;;;25.42;;
49177;SDS011;35016;55.674;37.468;2024-03-02T07:47:00;35.30;;;26.10;;
49177;SDS011;35016;55.674;37.468;2024-03-02T07:49:27;32.83;;;26.77;;
49177;SDS011;35016;55.674;37.468;2024-03-02T07:51:54;35.05;;;26.92;;
49177;SDS011;35016;55.674;37.468;2024-03-02T07:54:22;28.80;;;24.75;;
49177;SDS011;35016;55.674;37.468;2024-03-02T07:56:49;34.92;;;24.90;;
49177;SDS011;35016;55.674;37.468;2024-03-02T07:59:16;33.35;;;26.00;;
49177;SDS011;35016;55.674;37.468;2024-03-02T08:01:43;33.13;;;24.73;;
49177;SDS011;35016;55.674;37.468;2024-03-02T08:04:10;37.22;;;28.27;;
49177;SDS011;35016;55.674;37.468;2024-03-02T08:06:38;33.42;;;29.52;;
49177;SDS011;35016;55.674;37.468;2024-03-02T08:09:05;37.60;;;29.55;;
49177;SDS011;35016;55.674;37.468;2024-03-02T08:11:36;35.47;;;27.73;;
49177;SDS011;35016;55.674;37.468;2024-03-02T08:14:05;37.30;;;28.90;;
49177;SDS011;35016;55.674;37.468;2024-03-02T08:16:32;36.78;;;27.65;;
49177;SDS011;35016;55.674;37.468;2024-03-02T08:18:59;34.78;;;29.02;;
49177;SDS011;35016;55.674;37.468;2024-03-02T08:21:27;34.85;;;29.10;;
49177;SDS011;35016;55.674;37.468;2024-03-02T08:23:57;35.78;;;27.83;;
49177;SDS011;35016;55.674;37.468;2024-03-02T08:26:25;36.30;;;29.73;;
49177;SDS011;35016;55.674;37.468;2024-03-02T08:28:52;39.78;;;31.08;;
49177;SDS011;35016;55.674;37.468;2024-03-02T08:31:19;40.00;;;32.67;;
49177;SDS011;35016;55.674;37.468;2024-03-02T08:33:46;39.45;;;31.52;;
49177;SDS011;35016;55.674;37.468;2024-03-02T08:36:14;39.10;;;33.63;;
49177;SDS011;35016;55.674;37.468;2024-03-02T08:38:42;44.47;;;35.00;;
49177;SDS011;35016;55.674;37.468;2024-03-02T08:41:10;42.90;;;34.65;;
49177;SDS011;35016;55.674;37.468;2024-03-02T08:43:40;39.28;;;33.10;;
49177;SDS011;35016;55.674;37.468;2024-03-02T08:46:08;34.17;;;30.08;;
49177;SDS011;35016;55.674;37.468;2024-03-02T08:48:36;34.85;;;29.60;;
49177;SDS011;35016;55.674;37.468;2024-03-02T08:51:03;41.28;;;34.10;;
49177;SDS011;35016;55.674;37.468;2024-03-02T08:53:32;38.33;;;30.10;;
49177;SDS011;35016;55.674;37.468;2024-03-02T08:56:00;39.58;;;29.58;;
49177;SDS011;35016;55.674;37.468;2024-03-02T08:58:28;36.42;;;29.20;;
49177;SDS011;35016;55.674;37.468;2024-03-02T09:00:55;39.95;;;33.00;;
49177;SDS011;35016;55.674;37.468;2024-03-02T09:03:23;37.92;;;30.67;;
49177;SDS011;35016;55.674;37.468;2024-03-02T09:05:50;38.08;;;32.03;;
49177;SDS011;35016;55.674;37.468;2024-03-02T09:08:20;32.17;;;27.38;;
49177;SDS011;35016;55.674;37.468;2024-03-02T09:10:47;33.42;;;29.80;;
49177;SDS011;35016;55.674;37.468;2024-03-02T09:13:14;35.35;;;30.42;;
49177;SDS011;35016;55.674;37.468;2024-03-02T09:15:42;34.72;;;27.88;;
49177;SDS011;35016;55.674;37.468;2024-03-02T09:18:10;37.05;;;29.33;;
49177;SDS011;35016;55.674;37.468;2024-03-02T09:20:38;43.08;;;33.03;;
49177;SDS011;35016;55.674;37.468;2024-03-02T09:23:06;37.85;;;28.83;;
49177;SDS011;35016;55.674;37.468;2024-03-02T09:25:33;37.00;;;31.55;;
49177;SDS011;35016;55.674;37.468;2024-03-02T09:28:00;40.22;;;33.17;;
49177;SDS011;35016;55.674;37.468;2024-03-02T09:30:27;36.20;;;30.15;;
49177;SDS011;35016;55.674;37.468;2024-03-02T09:32:54;38.10;;;29.50;;
49177;SDS011;35016;55.674;37.468;2024-03-02T09:35:41;38.50;;;27.20;;
49177;SDS011;35016;55.674;37.468;2024-03-02T09:38:08;34.40;;;30.73;;
49177;SDS011;35016;55.674;37.468;2024-03-02T09:40:36;39.72;;;32.05;;
49177;SDS011;35016;55.674;37.468;2024-03-02T09:43:03;35.92;;;29.42;;
49177;SDS011;35016;55.674;37.468;2024-03-02T09:45:31;38.58;;;30.60;;
49177;SDS011;35016;55.674;37.468;2024-03-02T09:47:58;32.90;;;26.60;;
49177;SDS011;35016;55.674;37.468;2024-03-02T09:50:26;35.00;;;26.05;;
49177;SDS011;35016;55.674;37.468;2024-03-02T09:52:54;40.42;;;29.20;;
49177;SDS011;35016;55.674;37.468;2024-03-02T09:55:21;41.97;;;31.00;;
49177;SDS011;35016;55.674;37.468;2024-03-02T09:57:48;35.90;;;27.88;;
49177;SDS011;35016;55.674;37.468;2024-03-02T10:00:17;36.70;;;30.52;;
49177;SDS011;35016;55.674;37.468;2024-03-02T10:02:44;32.63;;;28.05;;
49177;SDS011;35016;55.674;37.468;2024-03-02T10:05:12;29.65;;;25.85;;
49177;SDS011;35016;55.674;37.468;2024-03-02T10:07:39;38.17;;;28.05;;
49177;SDS011;35016;55.674;37.468;2024-03-02T10:10:13;32.67;;;25.05;;
49177;SDS011;35016;55.674;37.468;2024-03-02T10:12:43;33.65;;;26.33;;
49177;SDS011;35016;55.674;37.468;2024-03-02T10:15:10;34.78;;;28.67;;
49177;SDS011;35016;55.674;37.468;2024-03-02T10:17:37;30.92;;;22.55;;
49177;SDS011;35016;55.674;37.468;2024-03-02T10:22:52;29.65;;;23.63;;
49177;SDS011;35016;55.674;37.468;2024-03-02T10:25:28;31.45;;;23.35;;
49177;SDS011;35016;55.674;37.468;2024-03-02T10:28:12;37.27;;;24.30;;
49177;SDS011;35016;55.674;37.468;2024-03-02T10:30:39;34.15;;;25.20;;
49177;SDS011;35016;55.674;37.468;2024-03-02T10:33:07;32.00;;;25.40;;
49177;SDS011;35016;55.674;37.468;2024-03-02T10:35:34;29.38;;;23.10;;
49177;SDS011;35016;55.674;37.468;2024-03-02T10:38:06;28.73;;;22.83;;
49177;SDS011;35016;55.674;37.468;2024-03-02T10:40:33;25.73;;;22.92;;
49177;SDS011;35016;55.674;37.468;2024-03-02T10:43:01;31.13;;;22.30;;
49177;SDS011;35016;55.674;37.468;2024-03-02T10:45:31;30.58;;;24.42;;
49177;SDS011;35016;55.674;37.468;2024-03-02T10:47:59;37.83;;;26.65;;
49177;SDS011;35016;55.674;37.468;2024-03-02T10:50:29;36.30;;;28.77;;
49177;SDS011;35016;55.674;37.468;2024-03-02T10:52:57;43.00;;;32.63;;
49177;SDS011;35016;55.674;37.468;2024-03-02T10:55:24;34.58;;;30.33;;
49177;SDS011;35016;55.674;37.468;2024-03-02T10:57:52;37.00;;;27.40;;
49177;SDS011;35016;55.674;37.468;2024-03-02T11:00:21;34.80;;;28.77;;
49177;SDS011;35016;55.674;37.468;2024-03-02T11:03:06;35.22;;;30.25;;
49177;SDS011;35016;55.674;37.468;2024-03-02T11:05:43;34.90;;;30.27;;
49177;SDS011;35016;55.674;37.468;2024-03-02T11:08:12;38.22;;;27.73;;
49177;SDS011;35016;55.674;37.468;2024-03-02T11:10:41;33.17;;;26.73;;
49177;SDS011;35016;55.674;37.468;2024-03-02T11:13:15;32.50;;;26.67;;
49177;SDS011;35016;55.674;37.468;2024-03-02T11:15:43;34.95;;;26.52;;
49177;SDS011;35016;55.674;37.468;2024-03-02T11:18:11;29.80;;;26.52;;
49177;SDS011;35016;55.674;37.468;2024-03-02T11:20:39;32.05;;;28.65;;
49177;SDS011;35016;55.674;37.468;2024-03-02T11:23:08;34.50;;;28.67;;
49177;SDS011;35016;55.674;37.468;2024-03-02T11:25:38;34.33;;;24.85;;
49177;SDS011;35016;55.674;37.468;2024-03-02T11:28:06;33.00;;;26.90;;
49177;SDS011;35016;55.674;37.468;2024-03-02T11:33:09;34.70;;;31.05;;
49177;SDS011;35016;55.674;37.468;2024-03-02T11:35:42;32.67;;;28.90;;
49177;SDS011;35016;55.674;37.468;2024-03-02T11:38:14;33.75;;;30.25;;
49177;SDS011;35016;55.674;37.468;2024-03-02T11:40:41;32.40;;;27.20;;
49177;SDS011;35016;55.674;37.468;2024-03-02T11:43:09;32.95;;;26.08;;
49177;SDS011;35016;55.674;37.468;2024-03-02T11:45:38;33.00;;;26.38;;
49177;SDS011;35016;55.674;37.468;2024-03-02T11:48:13;29.67;;;24.02;;
49177;SDS011;35016;55.674;37.468;2024-03-02T11:50:51;30.25;;;24.58;;
49177;SDS011;35016;55.674;37.468;2024-03-02T11:53:20;31.77;;;24.70;;
49177;SDS011;35016;55.674;37.468;2024-03-02T11:55:47;30.40;;;24.55;;
49177;SDS011;35016;55.674;37.468;2024-03-02T11:58:16;30.45;;;24.45;;
49177;SDS011;35016;55.674;37.468;2024-03-02T12:00:50;27.65;;;21.63;;
49177;SDS011;35016;55.674;37.468;2024-03-02T12:03:20;25.65;;;21.60;;
49177;SDS011;35016;55.674;37.468;2024-03-02T12:05:50;28.90;;;23.67;;
49177;SDS011;35016;55.674;37.468;2024-03-02T12:08:17;27.73;;;21.35;;
49177;SDS011;35016;55.674;37.468;2024-03-02T12:10:58;26.42;;;21.75;;
49177;SDS011;35016;55.674;37.468;2024-03-02T12:13:28;26.17;;;21.30;;
49177;SDS011;35016;55.674;37.468;2024-03-02T12:15:56;36.17;;;22.58;;
49177;SDS011;35016;55.674;37.468;2024-03-02T12:18:23;28.58;;;22.45;;
49177;SDS011;35016;55.674;37.468;2024-03-02T12:20:51;24.08;;;19.35;;
49177;SDS011;35016;55.674;37.468;2024-03-02T12:23:25;24.45;;;20.20;;
49177;SDS011;35016;55.674;37.468;2024-03-02T12:25:53;22.88;;;18.73;;
49177;SDS011;35016;55.674;37.468;2024-03-02T12:28:21;27.75;;;20.63;;
49177;SDS011;35016;55.674;37.468;2024-03-02T12:30:48;21.08;;;18.00;;
49177;SDS011;35016;55.674;37.468;2024-03-02T12:33:16;21.05;;;17.15;;
49177;SDS011;35016;55.674;37.468;2024-03-02T12:35:44;26.90;;;20.38;;
49177;SDS011;35016;55.674;37.468;2024-03-02T12:38:11;23.88;;;18.70;;
49177;SDS011;35016;55.674;37.468;2024-03-02T12:40:39;30.00;;;21.50;;
49177;SDS011;35016;55.674;37.468;2024-03-02T12:43:06;25.60;;;17.67;;
49177;SDS011;35016;55.674;37.468;2024-03-02T12:45:34;25.40;;;19.02;;
49177;SDS011;35016;55.674;37.468;2024-03-02T12:48:03;28.00;;;21.48;;
49177;SDS011;35016;55.674;37.468;2024-03-02T12:50:33;25.10;;;20.02;;
49177;SDS011;35016;55.674;37.468;2024-03-02T12:53:01;27.05;;;18.10;;
49177;SDS011;35016;55.674;37.468;2024-03-02T12:55:28;23.73;;;18.05;;
49177;SDS011;35016;55.674;37.468;2024-03-02T12:57:56;29.77;;;19.63;;
49177;SDS011;35016;55.674;37.468;2024-03-02T13:00:26;22.77;;;18.60;;
49177;SDS011;35016;55.674;37.468;2024-03-02T13:02:53;25.42;;;19.25;;
49177;SDS011;35016;55.674;37.468;2024-03-02T13:05:20;24.27;;;17.92;;
49177;SDS011;35016;55.674;37.468;2024-03-02T13:07:48;27.08;;;19.60;;
49177;SDS011;35016;55.674;37.468;2024-03-02T13:10:16;24.60;;;17.73;;
49177;SDS011;35016;55.674;37.468;2024-03-02T13:12:45;21.30;;;16.33;;
49177;SDS011;35016;55.674;37.468;2024-03-02T13:15:12;22.50;;;16.67;;
49177;SDS011;35016;55.674;37.468;2024-03-02T13:17:44;24.23;;;17.75;;
49177;SDS011;35016;55.674;37.468;2024-03-02T13:20:15;25.35;;;17.63;;
49177;SDS011;35016;55.674;37.468;2024-03-02T13:22:44;25.65;;;17.83;;
49177;SDS011;35016;55.674;37.468;2024-03-02T13:25:11;24.05;;;18.30;;
49177;SDS011;35016;55.674;37.468;2024-03-02T13:27:39;25.77;;;17.80;;
49177;SDS011;35016;55.674;37.468;2024-03-02T13:30:06;19.50;;;15.07;;
49177;SDS011;35016;55.674;37.468;2024-03-02T13:32:36;22.85;;;15.82;;
49177;SDS011;35016;55.674;37.468;2024-03-02T13:35:03;21.05;;;15.98;;
49177;SDS011;35016;55.674;37.468;2024-03-02T13:37:32;25.75;;;18.00;;
49177;SDS011;35016;55.674;37.468;2024-03-02T13:40:00;21.65;;;16.95;;
49177;SDS011;35016;55.674;37.468;2024-03-02T13:42:28;20.58;;;15.85;;
49177;SDS011;35016;55.674;37.468;2024-03-02T13:44:55;22.90;;;17.02;;
49177;SDS011;35016;55.674;37.468;2024-03-02T13:47:23;21.75;;;14.75;;
49177;SDS011;35016;55.674;37.468;2024-03-02T13:49:50;20.55;;;14.35;;
49177;SDS011;35016;55.674;37.468;2024-03-02T13:52:17;25.05;;;14.00;;
49177;SDS011;35016;55.674;37.468;2024-03-02T13:54:45;17.80;;;11.88;;
49177;SDS011;35016;55.674;37.468;2024-03-02T13:57:15;19.00;;;12.73;;
49177;SDS011;35016;55.674;37.468;2024-03-02T13:59:43;15.10;;;10.75;;
49177;SDS011;35016;55.674;37.468;2024-03-02T14:02:11;17.75;;;11.02;;
49177;SDS011;35016;55.674;37.468;2024-03-02T14:04:39;16.23;;;9.00;;
49177;SDS011;35016;55.674;37.468;2024-03-02T14:07:06;15.73;;;9.52;;
49177;SDS011;35016;55.674;37.468;2024-03-02T14:09:35;16.80;;;8.85;;
49177;SDS011;35016;55.674;37.468;2024-03-02T14:12:03;14.52;;;7.85;;
49177;SDS011;35016;55.674;37.468;2024-03-02T14:14:32;14.77;;;9.13;;
49177;SDS011;35016;55.674;37.468;2024-03-02T14:17:00;13.10;;;9.20;;
49177;SDS011;35016;55.674;37.468;2024-03-02T14:19:31;13.07;;;8.55;;
49177;SDS011;35016;55.674;37.468;2024-03-02T14:21:59;13.30;;;8.55;;
49177;SDS011;35016;55.674;37.468;2024-03-02T14:24:26;14.38;;;9.05;;